TimeCDT,TemperatureF,Dew PointF,Humidity,Sea Level PressureIn,VisibilityMPH,Wind Direction,Wind SpeedMPH,Gust SpeedMPH,PrecipitationIn,Events,Conditions,WindDirDegrees,DateUTC
12:53 AM,71.1,64.9,81,30.01,10.0,Calm,Calm,-,N/A,,Clear,0,2012-07-14 05:53:00
1:53 AM,70.0,66.0,87,30.01,10.0,South,4.6,-,N/A,,Clear,170,2012-07-14 06:53:00
2:53 AM,69.1,64.9,87,30.00,10.0,SSE,3.5,-,N/A,,Clear,160,2012-07-14 07:53:00
3:53 AM,66.2,64.4,94,30.01,8.0,Calm,Calm,-,N/A,,Clear,0,2012-07-14 08:53:00
4:53 AM,64.4,62.6,94,30.02,6.0,Calm,Calm,-,N/A,,Clear,0,2012-07-14 09:53:00
5:53 AM,63.0,61.0,93,30.01,7.0,Calm,Calm,-,N/A,,Clear,0,2012-07-14 10:53:00
6:53 AM,66.2,62.6,88,30.04,5.0,Calm,Calm,-,N/A,,Clear,0,2012-07-14 11:53:00
7:53 AM,73.0,66.9,81,30.03,5.0,Calm,Calm,-,N/A,,Haze,0,2012-07-14 12:53:00
8:53 AM,75.0,68.0,79,30.03,9.0,SSW,3.5,-,N/A,,Clear,200,2012-07-14 13:53:00
9:53 AM,78.1,68.0,71,30.04,10.0,Calm,Calm,-,N/A,,Clear,0,2012-07-14 14:53:00
10:53 AM,82.9,68.0,60,30.03,10.0,Calm,Calm,-,N/A,,Clear,0,2012-07-14 15:53:00
11:53 AM,86.0,68.0,55,30.03,10.0,South,4.6,-,N/A,,Clear,180,2012-07-14 16:53:00
12:53 PM,91.0,64.0,41,30.01,10.0,Variable,4.6,-,N/A,,Clear,0,2012-07-14 17:53:00
1:53 PM,91.9,66.0,42,30.00,10.0,South,4.6,-,N/A,,Clear,170,2012-07-14 18:53:00
2:53 PM,91.9,66.9,44,29.98,10.0,Variable,4.6,-,N/A,,Partly Cloudy,0,2012-07-14 19:53:00
3:53 PM,93.9,66.0,40,29.96,10.0,South,4.6,-,N/A,,Clear,190,2012-07-14 20:53:00
4:53 PM,93.9,64.9,38,29.94,10.0,Calm,Calm,-,N/A,,Clear,0,2012-07-14 21:53:00
5:53 PM,91.9,64.9,41,29.94,10.0,SW,3.5,-,N/A,,Partly Cloudy,230,2012-07-14 22:53:00
6:53 PM,91.0,66.0,44,29.94,10.0,SSW,5.8,-,N/A,,Clear,200,2012-07-14 23:53:00
7:53 PM,87.1,66.0,49,29.93,10.0,SSW,4.6,-,N/A,,Clear,210,2012-07-15 00:53:00
8:53 PM,78.1,68.0,71,29.95,10.0,NW,3.5,-,N/A,,Clear,320,2012-07-15 01:53:00
9:53 PM,75.9,68.0,76,29.96,10.0,Calm,Calm,-,N/A,,Clear,0,2012-07-15 02:53:00
10:53 PM,73.9,66.9,79,29.98,10.0,Calm,Calm,-,N/A,,Clear,0,2012-07-15 03:53:00
11:53 PM,73.0,66.9,81,29.99,10.0,Calm,Calm,-,N/A,,Clear,0,2012-07-15 04:53:00